EDT,Max TemperatureF,Mean TemperatureF,Min TemperatureF,Max Dew PointF,MeanDew PointF,Min DewpointF,Max Humidity, Mean Humidity, Min Humidity, Max Sea Level PressureIn, Mean Sea Level PressureIn, Min Sea Level PressureIn, Max VisibilityMiles, Mean VisibilityMiles, Min VisibilityMiles, Max Wind SpeedMPH, Mean Wind SpeedMPH, Max Gust SpeedMPH,PrecipitationIn, CloudCover, Events, WindDirDegrees
2013-10-1,83,71,58,64,61,56,90,72,54,30.17,30.10,30.05,10,10,9,8,1,16,T,4,,156
2013-10-2,84,74,63,67,63,60,93,72,51,30.19,30.12,30.06,10,9,3,6,1,24,0.00,6,,309
2013-10-3,84,75,65,67,63,58,90,67,43,30.13,30.09,30.05,10,10,10,12,2,16,0.00,3,,176
2013-10-4,84,73,62,66,63,59,93,72,51,30.17,30.12,30.08,10,8,1,7,1,9,0.00,4,Fog,185
2013-10-5,87,76,64,66,64,62,100,73,45,30.15,30.09,30.00,10,6,0,10,2,18,0.00,2,Fog,146
2013-10-6,84,72,60,68,64,59,93,74,55,29.99,29.92,29.83,10,8,2,17,5,25,0.06,6,Fog-Rain,173
2013-10-7,73,65,56,57,51,47,93,67,41,30.06,29.96,29.91,10,10,4,17,9,23,0.02,4,Rain,357
2013-10-8,76,66,56,55,49,45,73,58,43,30.13,30.09,30.04,10,10,10,17,8,26,0.00,3,,23
2013-10-9,79,68,57,60,57,53,93,71,48,30.21,30.15,30.10,10,10,10,8,1,21,0.00,3,,351
2013-10-10,82,70,57,59,56,53,93,68,42,30.17,30.10,30.03,10,10,10,13,3,28,0.00,2,,4
2013-10-11,82,67,52,55,52,45,96,62,28,30.10,30.04,30.00,10,10,5,10,2,15,0.00,1,Fog,343
2013-10-12,83,68,53,58,54,51,93,64,34,30.12,30.07,30.03,10,10,10,15,2,22,0.00,2,Fog,334
2013-10-13,83,69,54,59,55,51,93,65,37,30.23,30.17,30.12,10,10,7,15,3,23,0.00,1,Fog,6
2013-10-14,82,70,58,61,59,55,93,71,49,30.23,30.16,30.09,10,10,7,10,2,17,0.00,3,Fog,70
2013-10-15,72,67,62,60,58,55,90,74,57,30.16,30.11,30.05,10,10,10,12,4,16,0.00,7,,185
2013-10-16,72,67,61,63,59,57,87,77,66,30.07,30.01,29.96,10,9,3,10,2,14,0.04,6,Rain,179
2013-10-17,74,64,53,66,60,50,93,79,65,30.02,29.93,29.89,10,7,2,15,6,21,0.04,7,Rain,243
2013-10-18,70,60,49,51,47,44,93,69,45,30.07,30.01,29.96,10,10,10,15,4,20,0.00,4,,5
2013-10-19,70,58,46,52,49,43,89,71,53,30.05,29.97,29.92,10,10,7,14,5,20,0.00,4,,267
2013-10-20,68,54,40,43,40,33,89,59,29,30.12,30.07,30.03,10,10,10,12,2,15,0.00,0,,353
2013-10-21,71,55,38,48,42,36,93,64,34,30.16,30.09,30.00,10,8,0,9,2,13,0.00,4,Fog,131
2013-10-22,70,61,51,52,50,47,86,67,47,30.02,29.95,29.87,10,10,10,10,2,14,T,5,Rain,286
2013-10-23,57,49,40,49,38,30,89,63,36,30.12,29.99,29.85,10,10,10,20,8,25,0.00,2,,307
2013-10-24,61,50,39,40,37,35,85,64,42,30.30,30.19,30.13,10,10,10,17,4,23,0.00,5,,282
2013-10-25,54,44,33,32,27,24,76,56,35,30.47,30.39,30.31,10,10,10,18,7,22,0.00,1,,7
2013-10-26,61,46,30,35,30,27,92,63,33,30.37,30.27,30.15,10,10,10,13,4,16,0.00,3,,180
2013-10-27,63,56,49,52,45,35,86,70,54,30.17,30.13,30.10,10,10,5,8,2,10,0.01,7,Rain,175
2013-10-28,63,56,49,55,52,46,100,86,72,30.28,30.21,30.13,10,6,0,7,1,16,T,7,Fog,203
2013-10-29,73,63,53,57,54,51,100,77,53,30.35,30.29,30.22,10,4,0,7,1,8,0.00,7,Fog,181
2013-10-30,80,67,53,57,55,51,93,69,45,30.29,30.21,30.13,10,8,5,12,1,15,0.00,5,Fog,156
2013-10-31,74,67,60,64,59,54,84,74,64,30.13,29.96,29.74,10,10,7,21,9,29,0.13,6,Rain,171